KPIA/PIA METAR and TAF weather

Enter ICAO airport designator
Station Type Date Time Source
KPIA METAR 2020/12/01 20:54 UTC NOAA

KPIA 012054Z 30007KT 10SM CLR 03/M08 A3013 RMK AO2 SLP209 T00281083 55000


Station Type Date Time Source
KPIA Decoded METAR 2020/12/01 20:54 UTC NOAA

GREATER PEORIA REGIONAL AIRPORT , IL, United States (KPIA) 40-40N 89-41W 205M
Dec 01, 2020 - 03:54 PM EST / 2020.12.01 2054 UTC
Wind: from the WNW (300 degrees) at 8 MPH (7 KT):0
Visibility: 10 mile(s):0
Sky conditions: clear
Temperature: 37.0 F (2.8 C)
Dew Point: 17.1 F (-8.3 C)
Relative Humidity: 43%
Pressure (altimeter): 30.13 in. Hg (1020 hPa)
Pressure tendency: 0.00 inches (0.0 hPa) lower than three hours ago
ob: KPIA 012054Z 30007KT 10SM CLR 03/M08 A3013 RMK AO2 SLP209 T00281083 55000
cycle: 21

Station Type Date Time Source
KPIA TAF 2020/12/01 18:54 UTC NOAA

TAF KPIA 011730Z 0118/0218 32008KT P6SM SKC

Example: see airport list